createdAt,value
2023-03-15T11:12:27.661Z,11.20
2023-03-15T11:13:33.426Z,18.50
2023-03-15T11:14:43.562Z,11.40
2023-03-15T11:15:55.346Z,14.20
2023-03-15T11:16:59.140Z,9.50
2023-03-15T11:18:01.941Z,12.00
2023-03-15T11:19:15.334Z,6.30
2023-03-15T11:21:42.551Z,9.40
2023-03-15T11:22:45.418Z,14.30
2023-03-15T11:23:50.285Z,10.80
2023-03-15T11:24:54.832Z,11.80
2023-03-15T11:25:58.399Z,9.70
2023-03-15T11:27:04.053Z,9.10
2023-03-15T11:28:15.827Z,12.60
2023-03-15T11:29:34.488Z,12.90
2023-03-15T11:30:41.384Z,11.70
2023-03-15T11:31:44.460Z,8.90
2023-03-15T11:34:12.469Z,8.90
2023-03-15T11:35:39.931Z,8.70
2023-03-15T11:36:55.686Z,11.80
2023-03-15T11:38:15.446Z,11.10
2023-03-15T11:39:39.585Z,12.80
2023-03-15T11:40:51.140Z,9.90
2023-03-15T11:41:59.316Z,13.50
2023-03-15T11:43:15.381Z,11.40
2023-03-15T11:44:30.224Z,8.90
2023-03-15T11:45:43.405Z,10.40
2023-03-15T11:47:28.309Z,10.00
2023-03-15T11:48:57.219Z,12.40
2023-03-15T11:50:00.132Z,15.90
2023-03-15T11:51:03.240Z,11.60
2023-03-15T11:52:06.678Z,8.10
2023-03-15T11:53:12.655Z,12.40
2023-03-15T11:54:20.974Z,10.40
2023-03-15T11:55:28.847Z,9.30
2023-03-15T11:56:43.964Z,8.40
2023-03-15T11:57:49.512Z,10.90
2023-03-15T11:59:15.435Z,9.00
2023-03-15T12:00:34.545Z,20.00
2023-03-15T12:01:38.028Z,8.40
2023-03-15T12:02:49.006Z,11.00
2023-03-15T12:04:26.634Z,20.70
2023-03-15T12:05:49.655Z,12.20
2023-03-15T12:06:54.758Z,10.10
2023-03-15T12:08:15.658Z,15.60
2023-03-15T12:09:33.380Z,13.20
2023-03-15T12:10:46.433Z,8.60
2023-03-15T12:11:49.597Z,6.90
2023-03-15T12:12:58.972Z,7.50
2023-03-15T12:14:01.817Z,12.00
2023-03-15T12:15:19.805Z,15.10
2023-03-15T12:16:26.494Z,11.30
2023-03-15T12:17:37.327Z,9.60
2023-03-15T12:18:45.005Z,10.20
2023-03-15T12:19:47.969Z,11.50
2023-03-15T12:20:58.523Z,15.60
2023-03-15T12:22:01.383Z,8.90
2023-03-15T12:23:19.665Z,7.70
2023-03-15T12:24:27.281Z,11.80
2023-03-15T12:25:45.473Z,12.40
2023-03-15T12:27:18.600Z,13.10
2023-03-15T12:28:28.700Z,8.40
2023-03-15T12:29:34.006Z,8.40
2023-03-15T12:30:45.373Z,9.10
2023-03-15T12:32:03.360Z,7.80
2023-03-15T12:33:16.938Z,10.20
2023-03-15T12:34:51.199Z,7.30
2023-03-15T12:36:08.096Z,9.00
2023-03-15T12:37:16.862Z,12.00
2023-03-15T12:38:24.314Z,8.30
2023-03-15T12:39:39.163Z,7.60
2023-03-15T12:40:50.410Z,9.10
2023-03-15T12:41:53.250Z,8.10
2023-03-15T12:42:57.383Z,7.60
2023-03-15T12:44:21.925Z,11.20
2023-03-15T12:45:27.713Z,8.20
2023-03-15T12:46:36.852Z,10.40
2023-03-15T12:47:46.755Z,9.70
2023-03-15T12:49:18.578Z,9.50
2023-03-15T12:50:47.200Z,8.90
2023-03-15T12:51:59.365Z,10.10
2023-03-15T12:53:15.617Z,9.80
2023-03-15T12:54:18.932Z,8.40
2023-03-15T12:55:21.949Z,9.60
2023-03-15T12:56:42.593Z,11.50
2023-03-15T12:57:49.065Z,12.20
2023-03-15T12:58:58.286Z,11.60
2023-03-15T13:00:12.888Z,6.80
2023-03-15T13:01:17.757Z,8.40
2023-03-15T13:02:45.623Z,12.60
2023-03-15T13:03:48.593Z,9.90
2023-03-15T13:05:00.449Z,12.60
2023-03-15T13:06:13.230Z,17.70
2023-03-15T13:07:50.943Z,11.70
2023-03-15T13:08:58.017Z,8.70
2023-03-15T13:10:16.261Z,10.00
2023-03-15T13:12:00.421Z,8.70
2023-03-15T13:13:25.377Z,11.30
2023-03-15T13:14:39.828Z,13.30
2023-03-15T13:15:42.895Z,12.40
2023-03-15T13:16:56.429Z,12.40
2023-03-15T13:18:09.535Z,6.50
2023-03-15T13:19:18.943Z,11.70
2023-03-15T13:20:38.701Z,8.20
2023-03-15T13:22:05.781Z,7.60
2023-03-15T13:23:20.132Z,9.70
2023-03-15T13:24:36.045Z,11.00
2023-03-15T13:25:48.106Z,15.00
2023-03-15T13:27:30.248Z,8.00
2023-03-15T13:28:39.890Z,11.20
2023-03-15T13:29:42.703Z,12.10
2023-03-15T13:30:52.569Z,10.40
2023-03-15T13:32:16.470Z,10.30
2023-03-15T13:33:32.241Z,9.70
2023-03-15T13:34:35.699Z,9.20
2023-03-15T13:35:54.775Z,11.30
2023-03-15T13:36:59.096Z,9.20
2023-03-15T13:38:20.865Z,8.90
2023-03-15T13:39:32.536Z,11.50
2023-03-15T13:40:35.461Z,13.30
2023-03-15T13:41:38.699Z,9.50
2023-03-15T13:42:42.844Z,10.00
2023-03-15T13:43:46.608Z,11.50
2023-03-15T13:45:17.715Z,8.00
2023-03-15T13:46:26.801Z,8.40
2023-03-15T13:47:29.601Z,11.00
2023-03-15T13:48:35.577Z,8.90
2023-03-15T13:49:38.364Z,12.10
2023-03-15T13:50:41.160Z,7.50
2023-03-15T13:51:45.868Z,13.10
2023-03-15T13:52:49.193Z,9.40
2023-03-15T13:54:00.900Z,9.00
2023-03-15T13:55:05.409Z,9.20
2023-03-15T13:56:09.911Z,7.10
2023-03-15T13:57:16.476Z,14.50
2023-03-15T13:58:21.459Z,9.40
2023-03-15T13:59:30.148Z,10.40
2023-03-15T14:00:35.891Z,9.50
2023-03-15T14:01:42.492Z,9.90
2023-03-15T14:02:54.153Z,7.70
2023-03-15T14:04:05.798Z,8.80
2023-03-15T14:05:12.810Z,10.30
2023-03-15T14:06:22.655Z,8.00
2023-03-15T14:07:33.974Z,8.60
2023-03-15T14:08:38.550Z,9.30
2023-03-15T14:09:41.332Z,9.40
2023-03-15T14:10:56.866Z,9.30
2023-03-15T14:12:02.915Z,16.60
2023-03-15T14:13:25.676Z,7.20
2023-03-15T14:14:31.182Z,6.40
2023-03-15T14:15:41.503Z,10.10
2023-03-15T14:17:02.885Z,6.50
2023-03-15T14:18:09.259Z,9.30
2023-03-15T14:19:19.216Z,11.60
2023-03-15T14:20:28.590Z,15.10
2023-03-15T14:21:32.504Z,12.00
2023-03-15T14:22:36.461Z,6.40
2023-03-15T14:23:44.500Z,6.20
2023-03-15T14:24:51.098Z,8.10
2023-03-15T14:25:56.806Z,11.00
2023-03-15T14:27:02.244Z,10.10
2023-03-15T14:28:06.176Z,10.10
2023-03-15T14:29:32.288Z,8.30
2023-03-15T14:30:37.494Z,9.50
2023-03-15T14:31:46.505Z,8.90
2023-03-15T14:32:55.771Z,9.80
2023-03-15T14:34:08.111Z,11.20
2023-03-15T14:35:49.091Z,7.10
2023-03-15T14:36:54.260Z,7.90
2023-03-15T14:38:03.328Z,8.80
2023-03-15T14:39:18.837Z,10.50
2023-03-15T14:40:29.878Z,9.30
2023-03-15T14:41:33.316Z,12.20
2023-03-15T14:43:03.035Z,11.00
2023-03-15T14:44:43.357Z,10.20
2023-03-15T14:45:48.223Z,10.70
2023-03-15T14:46:51.280Z,13.40
2023-03-15T14:48:06.919Z,11.00
2023-03-15T14:49:13.538Z,12.70
2023-03-15T14:50:19.877Z,15.60
2023-03-15T14:51:24.733Z,14.20
2023-03-15T14:52:27.673Z,12.50
2023-03-15T14:53:36.815Z,11.30
2023-03-15T14:54:49.686Z,9.90
2023-03-15T14:55:52.565Z,14.50
2023-03-15T14:56:55.332Z,9.30
2023-03-15T14:57:58.100Z,11.40
2023-03-15T14:59:03.303Z,12.40
2023-03-15T15:00:10.451Z,11.20
2023-03-15T15:01:17.849Z,11.00
2023-03-15T15:02:20.897Z,10.20
2023-03-15T15:03:48.539Z,9.60
2023-03-15T15:04:51.937Z,11.30
2023-03-15T15:05:54.859Z,10.10
2023-03-15T15:06:58.048Z,9.10
2023-03-15T15:08:07.082Z,9.80
2023-03-15T15:09:10.916Z,11.10
2023-03-15T15:10:14.089Z,12.50
2023-03-15T15:11:16.930Z,8.80
2023-03-15T15:12:19.784Z,11.60
2023-03-15T15:13:28.735Z,9.90
2023-03-15T15:14:31.755Z,9.90
2023-03-15T15:15:53.522Z,9.70
2023-03-15T15:16:57.416Z,8.00
2023-03-15T15:18:00.229Z,9.20
2023-03-15T15:19:03.055Z,11.00
2023-03-15T15:20:07.514Z,12.50
2023-03-15T15:21:33.928Z,10.90
2023-03-15T15:22:36.926Z,10.20
2023-03-15T15:23:56.990Z,8.10
2023-03-15T15:25:00.568Z,17.60
2023-03-15T15:26:05.468Z,12.70
2023-03-15T15:27:10.772Z,9.10
2023-03-15T15:28:27.372Z,11.30
2023-03-15T15:29:36.425Z,13.20
2023-03-15T15:30:39.206Z,15.70
2023-03-15T15:31:43.472Z,12.50
2023-03-15T15:32:46.995Z,12.40
2023-03-15T15:33:51.344Z,10.10
2023-03-15T15:34:54.939Z,10.50
2023-03-15T15:35:58.001Z,9.50
2023-03-15T15:37:01.834Z,12.40
2023-03-15T15:38:11.316Z,11.70
2023-03-15T15:39:22.894Z,7.20
2023-03-15T15:40:32.230Z,10.30
2023-03-15T15:41:35.409Z,14.80
2023-03-15T15:42:38.163Z,9.90
2023-03-15T15:43:42.135Z,12.00
2023-03-15T15:44:46.025Z,11.40
2023-03-15T15:45:48.903Z,11.00
2023-03-15T15:46:52.020Z,8.00
2023-03-15T15:47:55.193Z,10.60
2023-03-15T15:48:58.830Z,7.80
2023-03-15T15:50:01.653Z,11.80
2023-03-15T15:51:16.556Z,9.70
2023-03-15T15:52:19.334Z,14.40
2023-03-15T15:53:22.243Z,9.30
2023-03-15T15:54:27.592Z,15.40
2023-03-15T15:55:33.891Z,12.10
2023-03-15T15:56:45.508Z,9.80
2023-03-15T15:57:50.370Z,12.60
2023-03-15T15:58:53.281Z,13.50
2023-03-15T15:59:56.043Z,12.90
2023-03-15T16:00:58.787Z,11.40
2023-03-15T16:02:02.827Z,11.50
2023-03-15T16:03:16.933Z,11.00
2023-03-15T16:04:21.095Z,12.80
2023-03-15T16:05:31.189Z,11.80
2023-03-15T16:06:35.593Z,9.50
2023-03-15T16:07:40.163Z,11.20
2023-03-15T16:08:43.780Z,11.30
2023-03-15T16:09:49.068Z,12.60
2023-03-15T16:10:51.985Z,11.10
2023-03-15T16:11:55.313Z,11.00
2023-03-15T16:12:58.197Z,11.60
2023-03-15T16:14:01.087Z,10.60
2023-03-15T16:15:04.074Z,9.80
2023-03-15T16:16:07.092Z,13.90
2023-03-15T16:17:22.125Z,11.80
2023-03-15T16:18:25.489Z,9.20
2023-03-15T16:19:28.246Z,13.40
2023-03-15T16:20:31.010Z,13.60
2023-03-15T16:21:41.830Z,9.60
2023-03-15T16:22:56.298Z,13.50
2023-03-15T16:24:21.806Z,9.00
2023-03-15T16:25:35.012Z,10.90
2023-03-15T16:26:39.308Z,13.40
2023-03-15T16:27:42.735Z,11.80
2023-03-15T16:28:47.995Z,10.10
2023-03-15T16:29:52.960Z,12.50
2023-03-15T16:30:55.738Z,13.30
2023-03-15T16:32:10.186Z,13.60
2023-03-15T16:33:21.147Z,11.10
2023-03-15T16:34:26.146Z,11.30
2023-03-15T16:35:35.214Z,12.90
2023-03-15T16:36:40.114Z,11.40
2023-03-15T16:37:44.136Z,13.40
2023-03-15T16:38:47.670Z,13.50
2023-03-15T16:39:54.714Z,10.40
2023-03-15T16:40:57.853Z,12.90
2023-03-15T16:42:00.697Z,13.10
2023-03-15T16:43:06.238Z,12.10
2023-03-15T16:44:13.640Z,12.90
2023-03-15T16:45:16.885Z,15.50
2023-03-15T16:46:19.649Z,12.00
2023-03-15T16:47:22.465Z,13.80
2023-03-15T16:48:25.188Z,14.50
2023-03-15T16:49:27.926Z,15.00
2023-03-15T16:50:32.007Z,18.20
2023-03-15T16:51:35.585Z,11.00
2023-03-15T16:52:39.593Z,17.50
2023-03-15T16:53:45.178Z,13.10
2023-03-15T16:54:48.974Z,13.40
2023-03-15T16:55:51.929Z,13.10
2023-03-15T16:56:54.955Z,14.30
2023-03-15T16:57:57.791Z,13.20
2023-03-15T16:59:01.033Z,13.50
2023-03-15T17:00:05.343Z,15.50
2023-03-15T17:01:11.554Z,16.00
2023-03-15T17:02:18.421Z,15.00
2023-03-15T17:03:21.774Z,16.80
2023-03-15T17:04:24.638Z,12.20
2023-03-15T17:05:27.609Z,15.00
2023-03-15T17:06:31.689Z,18.90
2023-03-15T17:07:37.767Z,15.90
2023-03-15T17:08:40.502Z,19.50
2023-03-15T17:09:45.619Z,22.60
2023-03-15T17:10:49.407Z,18.30
2023-03-15T17:11:53.002Z,17.10
2023-03-15T17:12:57.146Z,20.20
2023-03-15T17:13:59.937Z,23.70
2023-03-15T17:15:03.446Z,19.50
2023-03-15T17:16:11.928Z,20.70
2023-03-15T17:17:14.689Z,22.00
2023-03-15T17:18:19.150Z,16.80
2023-03-15T17:19:22.110Z,20.80
2023-03-15T17:20:29.526Z,19.60
2023-03-15T17:21:35.604Z,17.80
2023-03-15T17:22:41.928Z,18.00
2023-03-15T17:23:46.409Z,24.80
2023-03-15T17:24:49.575Z,19.50
2023-03-15T17:25:52.354Z,19.80
2023-03-15T17:26:55.156Z,20.10
2023-03-15T17:27:57.965Z,18.90
2023-03-15T17:29:02.629Z,17.00
2023-03-15T17:30:22.156Z,23.90
2023-03-15T17:31:25.860Z,17.80
2023-03-15T17:32:29.272Z,20.10
2023-03-15T17:33:32.356Z,23.60
2023-03-15T17:34:35.095Z,25.70
2023-03-15T17:35:41.548Z,21.10
2023-03-15T17:36:44.514Z,17.70
2023-03-15T17:37:47.687Z,17.70
2023-03-15T17:38:51.845Z,20.60
2023-03-15T17:39:54.616Z,18.30
2023-03-15T17:40:57.897Z,26.10
2023-03-15T17:42:01.070Z,22.00
2023-03-15T17:43:04.870Z,25.70
2023-03-15T17:44:07.670Z,35.00
2023-03-15T17:45:20.844Z,28.30
2023-03-15T17:46:29.912Z,34.60
2023-03-15T17:47:32.939Z,27.80
2023-03-15T17:48:35.729Z,30.80
2023-03-15T17:49:38.906Z,26.50
2023-03-15T17:50:44.347Z,32.20
2023-03-15T17:51:47.582Z,23.20
2023-03-15T17:52:56.294Z,28.10
2023-03-15T17:54:00.249Z,27.50
2023-03-15T17:55:03.228Z,24.70
2023-03-15T17:56:06.685Z,25.10
2023-03-15T17:57:12.777Z,24.30
2023-03-15T17:58:20.223Z,22.30
2023-03-15T17:59:23.089Z,24.00
2023-03-15T18:00:26.003Z,34.60
2023-03-15T18:01:29.229Z,22.90
2023-03-15T18:02:32.805Z,32.00
2023-03-15T18:03:36.112Z,27.70
2023-03-15T18:04:38.881Z,28.70
2023-03-15T18:05:41.933Z,25.10
2023-03-15T18:06:44.717Z,28.70
2023-03-15T18:07:58.181Z,31.30
2023-03-15T18:09:02.144Z,34.00
2023-03-15T18:10:05.720Z,32.90
2023-03-15T18:11:31.916Z,36.90
2023-03-15T18:12:34.668Z,32.00
2023-03-15T18:13:37.428Z,31.00
2023-03-15T18:14:40.201Z,41.80
2023-03-15T18:15:43.631Z,37.30
2023-03-15T18:16:46.486Z,39.70
2023-03-15T18:17:50.835Z,33.20
2023-03-15T18:18:53.600Z,33.40
2023-03-15T18:19:56.489Z,31.20
2023-03-15T18:20:59.301Z,29.20
2023-03-15T18:22:02.050Z,29.20
2023-03-15T18:23:05.348Z,30.40
2023-03-15T18:24:11.837Z,31.70
2023-03-15T18:25:17.517Z,32.00
2023-03-15T18:26:21.201Z,28.00
2023-03-15T18:27:23.961Z,26.60
2023-03-15T18:28:26.705Z,33.40
2023-03-15T18:29:29.561Z,29.00
2023-03-15T18:30:33.748Z,29.60
2023-03-15T18:31:36.563Z,30.70
2023-03-15T18:32:39.784Z,30.60
2023-03-15T18:33:43.163Z,32.10
2023-03-15T18:34:45.898Z,33.40
2023-03-15T18:35:48.762Z,30.00
2023-03-15T18:36:51.546Z,37.90
2023-03-15T18:37:56.116Z,31.50
2023-03-15T18:38:59.387Z,32.50
2023-03-15T18:40:02.398Z,32.70
2023-03-15T18:41:15.983Z,32.80
2023-03-15T18:42:19.715Z,28.40
2023-03-15T18:43:23.736Z,36.70
2023-03-15T18:44:26.589Z,39.70
2023-03-15T18:45:32.272Z,33.80
2023-03-15T18:46:35.057Z,34.00
2023-03-15T18:47:37.805Z,33.60
2023-03-15T18:48:42.638Z,34.70
2023-03-15T18:49:45.578Z,34.70
2023-03-15T18:50:49.164Z,35.60
2023-03-15T18:51:56.304Z,36.90
2023-03-15T18:52:59.507Z,45.20
2023-03-15T18:54:03.084Z,45.80
2023-03-15T18:55:07.868Z,44.40
2023-03-15T18:56:19.839Z,42.50
2023-03-15T18:57:22.706Z,42.90
2023-03-15T18:58:25.553Z,45.50
2023-03-15T18:59:28.316Z,42.90
2023-03-15T19:00:35.993Z,42.30
2023-03-15T19:01:38.939Z,44.00
2023-03-15T19:02:44.466Z,46.30
2023-03-15T19:03:48.298Z,45.60
2023-03-15T19:04:51.086Z,47.50
2023-03-15T19:05:53.860Z,47.00
2023-03-15T19:06:56.830Z,46.50
2023-03-15T19:07:59.728Z,47.20
2023-03-15T19:09:02.559Z,45.30
2023-03-15T19:10:07.470Z,47.90
2023-03-15T19:11:11.401Z,45.20
2023-03-15T19:12:14.171Z,46.70
2023-03-15T19:13:16.940Z,53.60
2023-03-15T19:14:19.782Z,45.90
2023-03-15T19:15:23.844Z,45.10
2023-03-15T19:16:29.004Z,48.90
2023-03-15T19:17:31.875Z,55.90
2023-03-15T19:18:35.054Z,50.90
2023-03-15T19:19:37.798Z,55.40
2023-03-15T19:20:41.053Z,55.20
2023-03-15T19:21:43.844Z,59.20
2023-03-15T19:22:46.646Z,53.10
2023-03-15T19:23:49.491Z,56.60
2023-03-15T19:24:52.776Z,54.80
2023-03-15T19:25:55.621Z,58.60
2023-03-15T19:26:58.460Z,58.40
2023-03-15T19:28:01.223Z,62.50
2023-03-15T19:29:05.721Z,56.80
2023-03-15T19:30:12.462Z,55.60
2023-03-15T19:31:15.289Z,57.30
2023-03-15T19:32:18.215Z,63.10
2023-03-15T19:33:21.048Z,58.90
2023-03-15T19:34:24.799Z,63.20
2023-03-15T19:35:27.749Z,57.90
2023-03-15T19:36:31.536Z,65.30
2023-03-15T19:37:34.374Z,59.50
2023-03-15T19:38:38.220Z,63.80
2023-03-15T19:39:41.096Z,64.10
2023-03-15T19:40:43.884Z,58.90
2023-03-15T19:41:47.167Z,57.40
2023-03-15T19:42:50.014Z,60.40
2023-03-15T19:43:52.888Z,60.30
2023-03-15T19:44:55.772Z,61.90
2023-03-15T19:46:01.344Z,54.50
2023-03-15T19:47:04.236Z,63.50
2023-03-15T19:48:07.456Z,57.40
2023-03-15T19:49:10.914Z,51.50
2023-03-15T19:50:14.628Z,56.10
2023-03-15T19:51:17.446Z,60.40
2023-03-15T19:52:21.305Z,54.40
2023-03-15T19:53:24.068Z,60.80
2023-03-15T19:54:27.756Z,54.70
2023-03-15T19:55:31.844Z,57.30
2023-03-15T19:56:34.826Z,56.50
2023-03-15T19:57:37.723Z,63.70
2023-03-15T19:58:40.591Z,67.40
2023-03-15T19:59:43.423Z,61.40
2023-03-15T20:00:46.753Z,59.60
2023-03-15T20:01:49.554Z,57.80
2023-03-15T20:02:52.869Z,60.50
2023-03-15T20:03:55.815Z,58.90
2023-03-15T20:04:58.598Z,49.70
2023-03-15T20:06:09.228Z,61.70
2023-03-15T20:07:12.386Z,51.40
2023-03-15T20:08:15.302Z,53.00
2023-03-15T20:09:18.155Z,55.00
2023-03-15T20:10:21.733Z,55.30
2023-03-15T20:11:29.391Z,54.90
2023-03-15T20:12:35.268Z,55.90
2023-03-15T20:13:38.076Z,53.30
2023-03-15T20:14:41.176Z,52.10
2023-03-15T20:15:44.145Z,52.80
2023-03-15T20:16:47.202Z,53.30
2023-03-15T20:17:50.147Z,53.30
2023-03-15T20:18:55.276Z,42.80
2023-03-15T20:19:58.145Z,52.90
2023-03-15T20:21:00.867Z,53.20
2023-03-15T20:22:03.974Z,52.70
2023-03-15T20:23:06.799Z,55.50
2023-03-15T20:24:09.714Z,54.10
2023-03-15T20:25:14.667Z,57.20
2023-03-15T20:26:18.784Z,57.40
2023-03-15T20:27:21.636Z,57.20
2023-03-15T20:28:24.417Z,64.70
2023-03-15T20:29:27.906Z,57.20
2023-03-15T20:30:30.955Z,58.50
2023-03-15T20:31:34.217Z,60.10
2023-03-15T20:32:37.030Z,60.30
2023-03-15T20:33:39.922Z,56.10
2023-03-15T20:34:42.775Z,59.60
2023-03-15T20:35:45.600Z,61.20
2023-03-15T20:36:48.438Z,60.40
2023-03-15T20:37:53.081Z,63.00
2023-03-15T20:38:55.978Z,54.60
2023-03-15T20:39:58.706Z,58.20
2023-03-15T20:41:01.483Z,56.70
2023-03-15T20:42:04.288Z,63.10
2023-03-15T20:43:07.138Z,55.60
2023-03-15T20:44:10.178Z,55.00
2023-03-15T20:45:13.836Z,52.40
2023-03-15T20:46:19.084Z,55.70
2023-03-15T20:47:22.097Z,55.40
2023-03-15T20:48:25.273Z,49.40
2023-03-15T20:49:29.345Z,56.50
2023-03-15T20:50:32.578Z,52.70
2023-03-15T20:51:35.966Z,53.10
2023-03-15T20:52:38.973Z,57.00
2023-03-15T20:53:41.771Z,54.60
2023-03-15T20:54:44.558Z,56.00
2023-03-15T20:55:47.633Z,59.70
2023-03-15T20:56:50.918Z,54.60
2023-03-15T20:57:54.865Z,59.10
2023-03-15T20:58:57.755Z,60.60
2023-03-15T21:00:00.636Z,61.70
2023-03-15T21:01:14.865Z,57.20
2023-03-15T21:02:17.862Z,57.70
2023-03-15T21:03:21.060Z,54.20
2023-03-15T21:04:26.125Z,55.60
2023-03-15T21:05:31.216Z,56.50
2023-03-15T21:06:34.095Z,63.50
2023-03-15T21:07:36.912Z,59.20
2023-03-15T21:08:40.227Z,60.40
2023-03-15T21:09:43.254Z,65.30
2023-03-15T21:10:46.002Z,66.70
2023-03-15T21:11:48.977Z,62.70
2023-03-15T21:12:51.752Z,60.30
2023-03-15T21:13:54.585Z,57.50
2023-03-15T21:14:57.397Z,62.50
2023-03-15T21:16:00.535Z,64.90
2023-03-15T21:17:03.476Z,61.40
2023-03-15T21:18:06.301Z,67.40
2023-03-15T21:19:09.206Z,64.30
2023-03-15T21:20:14.301Z,62.60
2023-03-15T21:21:19.505Z,58.80
2023-03-15T21:22:22.437Z,63.60
2023-03-15T21:23:27.975Z,64.80
2023-03-15T21:24:32.070Z,61.40
2023-03-15T21:25:35.786Z,60.90
2023-03-15T21:26:39.642Z,64.40
2023-03-15T21:27:42.725Z,61.90
2023-03-15T21:28:46.837Z,62.30
2023-03-15T21:29:49.591Z,57.40
2023-03-15T21:30:53.841Z,64.20
2023-03-15T21:31:56.694Z,66.40
2023-03-15T21:33:00.106Z,70.50
2023-03-15T21:34:03.281Z,67.10
2023-03-15T21:35:07.259Z,59.80
2023-03-15T21:36:10.256Z,62.60
2023-03-15T21:37:13.015Z,64.90
2023-03-15T21:38:16.403Z,71.20
2023-03-15T21:39:19.176Z,62.00
2023-03-15T21:40:22.068Z,62.60
2023-03-15T21:41:24.974Z,68.30
2023-03-15T21:42:27.753Z,59.70
2023-03-15T21:43:32.270Z,63.60
2023-03-15T21:44:36.214Z,65.40
2023-03-15T21:45:39.055Z,72.00
2023-03-15T21:46:42.473Z,64.60
2023-03-15T21:47:47.020Z,65.90
2023-03-15T21:48:50.025Z,66.20
2023-03-15T21:49:54.103Z,65.70
2023-03-15T21:50:57.028Z,63.60
2023-03-15T21:52:00.597Z,64.60
2023-03-15T21:53:04.021Z,68.60
2023-03-15T21:54:06.821Z,65.50
2023-03-15T21:55:09.898Z,67.00
2023-03-15T21:56:13.921Z,69.10
2023-03-15T21:57:16.718Z,63.60
2023-03-15T21:58:19.511Z,64.10
2023-03-15T21:59:28.046Z,65.50
2023-03-15T22:00:31.687Z,62.40
2023-03-15T22:01:34.835Z,62.80
2023-03-15T22:02:39.389Z,64.30
2023-03-15T22:03:42.676Z,62.70
2023-03-15T22:04:45.456Z,63.90
2023-03-15T22:05:48.397Z,66.20
2023-03-15T22:06:54.058Z,60.80
2023-03-15T22:07:56.831Z,64.10
2023-03-15T22:08:59.632Z,63.70
2023-03-15T22:10:02.414Z,60.80
2023-03-15T22:11:05.406Z,68.10
2023-03-15T22:12:08.454Z,65.60
2023-03-15T22:13:11.181Z,67.90
2023-03-15T22:14:13.978Z,63.30
2023-03-15T22:15:16.818Z,66.90
2023-03-15T22:16:19.622Z,67.20
2023-03-15T22:17:22.374Z,62.90
2023-03-15T22:18:28.597Z,72.50
2023-03-15T22:19:32.164Z,64.00
2023-03-15T22:20:35.050Z,61.10
2023-03-15T22:21:37.811Z,61.00
2023-03-15T22:22:40.584Z,61.90
2023-03-15T22:23:43.401Z,64.40
2023-03-15T22:24:46.738Z,62.90
2023-03-15T22:25:52.964Z,54.80
2023-03-15T22:26:56.259Z,57.20
2023-03-15T22:27:59.550Z,58.40
2023-03-15T22:29:02.332Z,61.50
2023-03-15T22:30:06.959Z,55.50
2023-03-15T22:31:11.750Z,55.10
2023-03-15T22:32:14.808Z,54.40
2023-03-15T22:33:19.398Z,61.40
2023-03-15T22:34:22.174Z,57.50
2023-03-15T22:35:25.939Z,53.00
2023-03-15T22:36:28.929Z,51.00
2023-03-15T22:37:34.083Z,52.90
2023-03-15T22:38:39.447Z,54.10
2023-03-15T22:39:43.147Z,47.80
2023-03-15T22:40:45.992Z,55.50
2023-03-15T22:41:48.732Z,50.40
2023-03-15T22:42:52.812Z,55.00
2023-03-15T22:43:55.603Z,52.50
2023-03-15T22:44:58.377Z,47.50
2023-03-15T22:46:01.962Z,51.00
2023-03-15T22:47:04.881Z,45.90
2023-03-15T22:48:07.838Z,48.10
2023-03-15T22:49:10.834Z,48.80
2023-03-15T22:50:14.354Z,46.40
2023-03-15T22:51:17.333Z,48.90
2023-03-15T22:52:20.502Z,45.10
2023-03-15T22:53:23.286Z,45.90
2023-03-15T22:54:26.134Z,52.00
2023-03-15T22:55:28.889Z,47.50
2023-03-15T22:56:31.667Z,44.80
2023-03-15T22:57:34.442Z,43.40
2023-03-15T22:58:38.048Z,47.30
2023-03-15T22:59:40.879Z,44.60
2023-03-15T23:00:45.066Z,43.40
2023-03-15T23:01:47.876Z,48.50
2023-03-15T23:02:51.212Z,51.30
2023-03-15T23:03:54.076Z,52.50
2023-03-15T23:04:56.899Z,44.30
2023-03-15T23:06:00.431Z,46.90
2023-03-15T23:07:03.586Z,43.20
2023-03-15T23:08:07.254Z,43.50
2023-03-15T23:09:10.020Z,44.20
2023-03-15T23:10:13.256Z,50.20
2023-03-15T23:11:16.080Z,46.20
2023-03-15T23:12:24.294Z,46.70
2023-03-15T23:13:30.190Z,46.00
2023-03-15T23:14:33.609Z,45.70
2023-03-15T23:15:36.391Z,43.80
2023-03-15T23:16:39.321Z,40.90
2023-03-15T23:17:45.949Z,42.50
2023-03-15T23:18:48.907Z,43.20
2023-03-15T23:19:51.871Z,45.90
2023-03-15T23:21:06.988Z,48.20
2023-03-15T23:22:09.800Z,48.30
2023-03-15T23:23:12.615Z,44.20
2023-03-15T23:24:18.984Z,49.40
2023-03-15T23:25:24.135Z,46.80
2023-03-15T23:26:27.434Z,46.10
2023-03-15T23:27:30.313Z,43.90
2023-03-15T23:28:33.795Z,47.10
2023-03-15T23:29:52.978Z,40.90
2023-03-15T23:31:01.421Z,47.30
2023-03-15T23:32:04.662Z,45.00
2023-03-15T23:33:08.709Z,45.50
2023-03-15T23:34:11.583Z,46.60
2023-03-15T23:35:14.999Z,48.30
2023-03-15T23:36:17.745Z,44.50
2023-03-15T23:37:23.927Z,46.70
2023-03-15T23:38:26.846Z,45.80
2023-03-15T23:39:29.716Z,43.50
2023-03-15T23:40:32.557Z,41.80
2023-03-15T23:41:35.895Z,40.40
2023-03-15T23:42:38.721Z,42.10
2023-03-15T23:43:41.791Z,51.10
2023-03-15T23:44:44.559Z,40.20
2023-03-15T23:45:47.411Z,41.60
2023-03-15T23:46:50.613Z,42.50
2023-03-15T23:47:53.686Z,42.70
2023-03-15T23:48:56.415Z,46.50
2023-03-15T23:49:59.202Z,47.80
2023-03-15T23:51:05.336Z,38.40
2023-03-15T23:52:08.169Z,39.80
2023-03-15T23:53:10.944Z,39.90
2023-03-15T23:54:13.716Z,42.70
2023-03-15T23:55:16.901Z,42.60
2023-03-15T23:56:19.698Z,41.80
2023-03-15T23:57:22.695Z,43.40
2023-03-15T23:58:25.931Z,40.70
2023-03-15T23:59:29.204Z,41.20
